Time;durP1;ratioP1;P1;durP2;ratioP2;P2;SDS_P1;SDS_P2;PMS_P1;PMS_P2;Temp;Humidity;BMP_temperature;BMP_pressure;BME280_temperature;BME280_humidity;BME280_pressure;Samples;Min_cycle;Max_cycle;Signal;HPM_P1;HPM_P2
2021/08/26 00:00:27;;;;;;;3.28;1.40;;;29.20;99.90;;;;;;4153804;28;20057;-68
2021/08/26 00:07:17;;;;;;;2.35;1.27;;;29.20;99.90;;;;;;4172093;28;20060;-69
2021/08/26 00:09:22;;;;;;;3.40;1.30;;;29.30;99.90;;;;;;4171144;28;20041;-68
2021/08/26 00:11:29;;;;;;;2.70;1.27;;;29.40;99.90;;;;;;4171943;28;20092;-68
2021/08/26 00:14:05;;;;;;;2.85;1.20;;;29.40;99.90;;;;;;4158662;28;20056;-71
2021/08/26 00:16:13;;;;;;;2.95;1.15;;;29.30;99.90;;;;;;4174326;28;20056;-70
2021/08/26 00:18:40;;;;;;;3.70;1.00;;;29.30;99.90;;;;;;4165828;28;20049;-69
2021/08/26 00:21:03;;;;;;;1.52;1.10;;;29.40;99.90;;;;;;4155591;28;20053;-69
2021/08/26 00:23:07;;;;;;;1.50;1.00;;;29.40;99.90;;;;;;4163711;28;20493;-69
2021/08/26 00:25:18;;;;;;;2.90;1.20;;;29.40;99.90;;;;;;4181195;28;20063;-69
2021/08/26 00:27:36;;;;;;;2.47;0.98;;;29.50;99.90;;;;;;4200724;28;20048;-69
2021/08/26 00:29:41;;;;;;;2.58;0.90;;;29.40;99.90;;;;;;4181362;28;20049;-69
2021/08/26 00:31:58;;;;;;;1.50;0.93;;;29.50;99.90;;;;;;4190939;28;20049;-71
2021/08/26 00:34:14;;;;;;;2.65;1.00;;;29.50;99.90;;;;;;4118207;28;20190;-71
2021/08/26 00:36:24;;;;;;;3.35;1.00;;;29.60;99.90;;;;;;4181111;28;20300;-71
2021/08/26 00:38:36;;;;;;;4.10;1.65;;;29.50;99.90;;;;;;4182080;28;20075;-70
2021/08/26 00:40:52;;;;;;;2.20;1.30;;;29.60;99.90;;;;;;4181720;28;20060;-70
2021/08/26 00:43:00;;;;;;;1.88;0.98;;;29.60;99.90;;;;;;4189522;28;20040;-69
2021/08/26 00:45:05;;;;;;;3.35;1.25;;;29.60;99.90;;;;;;4182538;28;20052;-69
2021/08/26 00:47:11;;;;;;;2.28;1.10;;;29.70;99.90;;;;;;4180806;28;20056;-69
2021/08/26 00:49:16;;;;;;;2.50;1.42;;;29.70;99.90;;;;;;4181544;28;20562;-69
2021/08/26 00:51:20;;;;;;;3.35;1.10;;;29.80;99.90;;;;;;4180339;28;20041;-69
2021/08/26 00:53:25;;;;;;;1.65;1.02;;;29.80;99.90;;;;;;4161805;28;20075;-67
2021/08/26 00:55:31;;;;;;;3.10;0.90;;;29.90;99.90;;;;;;4167950;28;20416;-67
2021/08/26 00:57:37;;;;;;;1.15;0.90;;;29.90;99.90;;;;;;4172664;28;20103;-68
2021/08/26 00:59:42;;;;;;;1.67;1.05;;;30.00;99.90;;;;;;4147766;28;20534;-68
2021/08/26 01:01:47;;;;;;;1.40;0.75;;;30.00;99.90;;;;;;4163454;28;20050;-70
2021/08/26 01:03:59;;;;;;;2.33;1.13;;;30.00;99.90;;;;;;4127530;28;20104;-68
2021/08/26 01:06:14;;;;;;;2.17;1.02;;;30.10;99.90;;;;;;4099836;28;20051;-67
2021/08/26 01:08:41;;;;;;;2.67;1.10;;;30.10;99.90;;;;;;4121648;28;20058;-68
2021/08/26 01:10:50;;;;;;;1.42;0.90;;;30.20;99.90;;;;;;4124573;28;20050;-69
2021/08/26 01:13:05;;;;;;;1.27;0.90;;;30.20;99.90;;;;;;4132384;28;20198;-69
2021/08/26 01:15:16;;;;;;;1.20;0.90;;;30.20;99.80;;;;;;4148074;28;20045;-69
2021/08/26 01:17:34;;;;;;;3.25;1.10;;;30.20;99.70;;;;;;4149163;28;20046;-71
2021/08/26 01:19:43;;;;;;;6.15;1.25;;;30.20;99.70;;;;;;4151295;28;20057;-72
2021/08/26 01:21:58;;;;;;;;;;;30.20;99.50;;;;;;4149112;28;20125;-71
2021/08/26 01:24:32;;;;;;;1.73;1.00;;;30.10;99.90;;;;;;4104195;28;20293;-69
2021/08/26 01:26:48;;;;;;;2.40;0.93;;;30.20;99.70;;;;;;4087070;29;20107;-69
2021/08/26 01:29:37;;;;;;;2.03;0.98;;;30.30;99.30;;;;;;4077007;29;20052;-70
2021/08/26 01:35:07;;;;;;;1.10;0.80;;;30.70;98.60;;;;;;4085359;29;20063;-70
2021/08/26 01:37:33;;;;;;;0.85;0.60;;;30.80;98.30;;;;;;4105390;29;20411;-71
2021/08/26 01:40:13;;;;;;;2.70;1.08;;;30.80;98.10;;;;;;4088096;29;20044;-73
2021/08/26 01:42:24;;;;;;;1.90;0.80;;;30.80;98.40;;;;;;4061197;29;20135;-71
2021/08/26 01:44:29;;;;;;;1.52;0.90;;;30.80;98.40;;;;;;4064493;29;20399;-70
2021/08/26 01:46:34;;;;;;;1.17;0.90;;;30.70;98.30;;;;;;4077208;29;20542;-69
2021/08/26 01:48:45;;;;;;;2.20;1.10;;;30.80;98.20;;;;;;4095285;29;20046;-70
2021/08/26 01:50:50;;;;;;;1.30;0.85;;;30.90;98.00;;;;;;4087601;29;20530;-68
2021/08/26 01:52:58;;;;;;;0.98;0.80;;;31.00;97.90;;;;;;4089886;29;20472;-69
2021/08/26 01:55:06;;;;;;;1.65;1.10;;;31.10;97.80;;;;;;4078031;29;20044;-74
2021/08/26 01:57:14;;;;;;;1.67;0.80;;;31.10;97.40;;;;;;4082066;29;20517;-69
2021/08/26 01:59:28;;;;;;;1.92;0.85;;;31.20;97.20;;;;;;4053572;29;20412;-69
2021/08/26 02:01:46;;;;;;;1.77;0.95;;;31.30;97.20;;;;;;4058498;29;20234;-70
2021/08/26 02:04:04;;;;;;;1.77;0.90;;;31.30;97.10;;;;;;4102655;28;20097;-70
2021/08/26 02:06:14;;;;;;;1.58;1.05;;;31.20;97.20;;;;;;4146358;28;20041;-71
2021/08/26 02:08:50;;;;;;;1.38;1.02;;;31.20;97.20;;;;;;4149876;28;20046;-70
2021/08/26 02:11:03;;;;;;;1.10;0.90;;;31.20;97.40;;;;;;4137327;28;20073;-70
2021/08/26 02:13:11;;;;;;;1.35;0.88;;;31.10;97.30;;;;;;4135697;28;20057;-74
2021/08/26 02:15:45;;;;;;;3.63;1.23;;;31.10;97.30;;;;;;4133291;28;20042;-71
2021/08/26 02:18:13;;;;;;;3.58;1.45;;;31.20;97.30;;;;;;4110363;28;20473;-71
2021/08/26 02:20:24;;;;;;;2.75;1.38;;;31.30;97.30;;;;;;4170069;28;20053;-72
2021/08/26 02:22:56;;;;;;;;;;;;;;;;;;;;;
2021/08/26 02:25:10;;;;;;;3.05;1.10;;;31.40;97.10;;;;;;4175180;28;20427;-76
2021/08/26 02:27:30;;;;;;;3.22;1.30;;;31.40;97.00;;;;;;4124616;28;20064;-78
2021/08/26 02:29:44;;;;;;;3.05;1.10;;;31.40;96.90;;;;;;4133917;28;20030;-77
2021/08/26 02:32:04;;;;;;;2.47;1.20;;;31.50;96.80;;;;;;4178060;28;20041;-69
2021/08/26 02:34:36;;;;;;;3.67;1.10;;;31.60;96.50;;;;;;4170356;28;20084;-68
2021/08/26 02:36:51;;;;;;;3.42;1.08;;;31.60;96.50;;;;;;4135072;28;20043;-70
2021/08/26 02:39:02;;;;;;;2.97;1.27;;;31.50;96.50;;;;;;4170541;28;20496;-70
2021/08/26 02:41:10;;;;;;;3.33;1.10;;;31.50;96.50;;;;;;4144043;28;20046;-73
2021/08/26 02:43:24;;;;;;;3.40;1.40;;;31.60;96.30;;;;;;4145009;28;20096;-72
2021/08/26 02:46:08;;;;;;;3.17;1.30;;;31.70;96.00;;;;;;4154242;28;20087;-72
2021/08/26 02:48:23;;;;;;;1.80;1.02;;;31.90;95.90;;;;;;4085856;29;20055;-72
2021/08/26 02:50:50;;;;;;;2.72;1.27;;;31.90;95.80;;;;;;4108636;28;20477;-72
2021/08/26 02:53:03;;;;;;;3.08;1.15;;;31.90;95.60;;;;;;4103189;28;20146;-72
2021/08/26 02:55:11;;;;;;;3.10;1.05;;;31.90;95.50;;;;;;4116746;28;20043;-72
2021/08/26 02:57:20;;;;;;;2.72;1.08;;;32.00;95.30;;;;;;4071443;28;20542;-74
2021/08/26 02:59:47;;;;;;;2.55;1.20;;;32.10;95.10;;;;;;4107804;28;20048;-76
2021/08/26 03:01:59;;;;;;;3.88;1.25;;;32.20;94.90;;;;;;4118283;28;20053;-77
2021/08/26 03:04:13;;;;;;;2.67;1.10;;;32.20;94.80;;;;;;4109676;28;20442;-75
2021/08/26 03:06:21;;;;;;;2.25;1.23;;;32.20;94.60;;;;;;4101780;28;20134;-77
2021/08/26 03:08:25;;;;;;;2.67;1.13;;;32.30;94.40;;;;;;4100743;28;20126;-77
2021/08/26 03:10:30;;;;;;;2.08;0.90;;;32.30;94.10;;;;;;4102735;28;20081;-77
2021/08/26 03:12:35;;;;;;;1.88;1.00;;;32.40;94.00;;;;;;4115503;28;20055;-78
2021/08/26 03:14:40;;;;;;;2.05;0.93;;;32.50;93.70;;;;;;4090483;28;20058;-78
2021/08/26 03:16:45;;;;;;;2.83;1.17;;;32.60;93.20;;;;;;4112748;28;20070;-78
2021/08/26 03:18:49;;;;;;;1.63;1.10;;;32.60;93.40;;;;;;4114566;28;20058;-77
2021/08/26 03:20:54;;;;;;;2.83;1.20;;;32.60;93.80;;;;;;4115458;28;20059;-77
2021/08/26 03:22:58;;;;;;;1.77;1.33;;;32.70;94.00;;;;;;4144707;28;20859;-77
2021/08/26 03:25:04;;;;;;;1.80;1.20;;;32.70;93.90;;;;;;4156779;28;20033;-79
2021/08/26 03:27:10;;;;;;;3.35;1.20;;;32.80;93.90;;;;;;4182246;28;20099;-78
2021/08/26 03:29:15;;;;;;;1.75;1.10;;;32.90;93.50;;;;;;4184629;28;20419;-76
2021/08/26 03:31:19;;;;;;;2.00;1.42;;;33.00;93.30;;;;;;4192061;28;20389;-76
2021/08/26 03:33:24;;;;;;;3.78;1.20;;;33.00;93.40;;;;;;4188386;28;20056;-77
2021/08/26 03:35:29;;;;;;;2.22;1.10;;;33.10;93.40;;;;;;4190174;28;20051;-77
2021/08/26 03:37:34;;;;;;;3.15;1.30;;;33.10;93.40;;;;;;4189463;28;20495;-75
2021/08/26 03:39:38;;;;;;;1.30;0.88;;;33.20;93.00;;;;;;4140166;28;20060;-77
2021/08/26 03:41:45;;;;;;;2.05;1.00;;;33.30;93.20;;;;;;4187449;28;20044;-78
2021/08/26 03:43:50;;;;;;;2.83;1.02;;;33.40;92.80;;;;;;4194095;28;20037;-77
2021/08/26 03:45:55;;;;;;;2.95;1.10;;;33.30;92.30;;;;;;4190145;28;20052;-77
2021/08/26 03:48:00;;;;;;;1.80;1.08;;;33.20;92.50;;;;;;4187429;28;20048;-77
2021/08/26 03:50:05;;;;;;;4.43;1.10;;;33.10;92.60;;;;;;4168733;28;20419;-78
2021/08/26 03:52:10;;;;;;;1.50;1.00;;;33.10;92.60;;;;;;4181011;28;20068;-78
2021/08/26 03:54:15;;;;;;;3.55;1.00;;;33.10;92.50;;;;;;4190979;28;20068;-79
2021/08/26 03:56:23;;;;;;;2.90;1.00;;;33.20;92.30;;;;;;4183399;28;20998;-78
2021/08/26 03:58:27;;;;;;;1.10;0.90;;;33.10;92.10;;;;;;4172460;28;20125;-77
2021/08/26 04:00:32;;;;;;;2.28;1.10;;;33.10;92.30;;;;;;4190465;28;20048;-79
2021/08/26 04:02:37;;;;;;;1.58;1.02;;;33.10;92.20;;;;;;4191366;28;20574;-77
2021/08/26 04:04:41;;;;;;;1.83;1.13;;;33.20;91.90;;;;;;4189399;28;20289;-78
2021/08/26 04:06:46;;;;;;;1.75;0.98;;;33.30;91.80;;;;;;4188811;28;20055;-77
2021/08/26 04:08:50;;;;;;;3.08;1.20;;;33.40;91.50;;;;;;4190340;28;20055;-78
2021/08/26 04:10:55;;;;;;;1.90;1.00;;;33.30;91.20;;;;;;4189512;28;20064;-77
2021/08/26 04:12:59;;;;;;;2.20;1.20;;;33.20;91.30;;;;;;4191035;28;20110;-77
2021/08/26 04:15:04;;;;;;;2.75;1.05;;;33.10;91.40;;;;;;4191549;28;20098;-77
2021/08/26 04:17:09;;;;;;;2.83;1.42;;;33.10;90.80;;;;;;4176064;28;20427;-77
2021/08/26 04:19:13;;;;;;;1.85;1.02;;;33.30;91.00;;;;;;4198782;28;20044;-79
2021/08/26 04:21:18;;;;;;;1.67;0.93;;;33.40;91.20;;;;;;4199207;28;20058;-77
2021/08/26 04:23:22;;;;;;;2.45;1.30;;;33.60;90.90;;;;;;4203976;28;20089;-74
2021/08/26 04:25:27;;;;;;;2.25;1.20;;;33.60;90.60;;;;;;4204439;28;20048;-73
2021/08/26 04:27:31;;;;;;;4.53;1.20;;;33.60;90.50;;;;;;4200322;28;20510;-74
2021/08/26 04:29:36;;;;;;;1.90;1.10;;;33.60;90.30;;;;;;4204012;28;20093;-75
2021/08/26 04:31:41;;;;;;;3.95;1.30;;;33.60;90.30;;;;;;4180741;28;20095;-75
2021/08/26 04:33:45;;;;;;;2.58;1.10;;;33.60;90.30;;;;;;4162492;28;20045;-75
2021/08/26 04:35:50;;;;;;;2.65;1.10;;;33.70;90.10;;;;;;4159154;28;20111;-77
2021/08/26 04:37:55;;;;;;;1.83;0.90;;;33.70;90.10;;;;;;4161044;28;20044;-76
2021/08/26 04:40:00;;;;;;;1.20;0.70;;;33.70;89.10;;;;;;4172981;28;20414;-76
2021/08/26 04:42:04;;;;;;;2.22;1.10;;;33.70;88.90;;;;;;4170873;28;20073;-76
2021/08/26 04:44:09;;;;;;;4.10;1.00;;;33.70;88.80;;;;;;4161443;28;20064;-75
2021/08/26 04:46:14;;;;;;;2.03;1.10;;;33.70;88.10;;;;;;4161916;28;20049;-75
2021/08/26 04:48:19;;;;;;;1.77;0.80;;;33.80;88.30;;;;;;4160536;28;20059;-76
2021/08/26 04:50:24;;;;;;;2.22;0.90;;;33.80;87.80;;;;;;4147013;28;20157;-76
2021/08/26 04:52:29;;;;;;;2.28;0.90;;;33.80;88.00;;;;;;4162103;28;20052;-76
2021/08/26 04:54:34;;;;;;;1.13;0.80;;;33.90;88.30;;;;;;4170056;28;20520;-76
2021/08/26 04:56:38;;;;;;;2.08;1.13;;;33.90;87.10;;;;;;4162563;28;20045;-76
2021/08/26 04:58:43;;;;;;;2.83;0.88;;;33.80;86.70;;;;;;4163777;28;20049;-74
2021/08/26 05:00:48;;;;;;;4.43;1.23;;;33.90;86.60;;;;;;4165477;28;20056;-76
2021/08/26 05:02:53;;;;;;;2.35;0.80;;;33.90;87.00;;;;;;4165522;28;20049;-75
2021/08/26 05:04:58;;;;;;;1.15;0.80;;;33.90;87.10;;;;;;4182509;28;20564;-76
2021/08/26 05:07:03;;;;;;;1.65;0.75;;;34.10;87.20;;;;;;4200795;28;20075;-76
2021/08/26 05:09:09;;;;;;;2.63;0.80;;;34.10;87.60;;;;;;4201071;28;20047;-75
2021/08/26 05:11:20;;;;;;;2.15;1.08;;;34.20;87.10;;;;;;4215601;28;20465;-74
2021/08/26 05:13:24;;;;;;;1.40;0.70;;;34.30;85.90;;;;;;4199728;28;20048;-74
2021/08/26 05:15:29;;;;;;;0.77;0.60;;;34.20;84.80;;;;;;4166160;28;20053;-76
2021/08/26 05:17:37;;;;;;;1.02;0.50;;;34.20;84.90;;;;;;4200799;28;20044;-77
2021/08/26 05:19:41;;;;;;;0.85;0.75;;;34.20;84.80;;;;;;4200228;28;20049;-77
2021/08/26 05:21:47;;;;;;;3.10;0.70;;;34.30;84.80;;;;;;4179242;28;20528;-76
2021/08/26 05:23:51;;;;;;;0.98;0.88;;;34.30;84.60;;;;;;4184683;28;20137;-75
2021/08/26 05:25:56;;;;;;;0.90;0.70;;;34.30;85.10;;;;;;4211581;28;20044;-75
2021/08/26 05:28:03;;;;;;;2.65;0.88;;;34.30;85.20;;;;;;4203301;28;20040;-75
2021/08/26 05:30:08;;;;;;;1.45;0.85;;;34.20;85.70;;;;;;4183313;28;20109;-76
2021/08/26 05:32:13;;;;;;;1.80;0.95;;;34.10;86.40;;;;;;4200770;28;20423;-75
2021/08/26 05:34:18;;;;;;;2.97;1.08;;;34.10;86.90;;;;;;4188623;28;20048;-74
2021/08/26 05:36:25;;;;;;;2.25;0.70;;;34.20;86.20;;;;;;4190948;28;20052;-75
2021/08/26 05:38:30;;;;;;;1.77;0.82;;;34.30;85.70;;;;;;4204626;28;20094;-76
2021/08/26 05:40:38;;;;;;;2.35;1.00;;;34.40;85.50;;;;;;4210672;28;20055;-76
2021/08/26 05:42:52;;;;;;;2.17;0.90;;;34.50;84.80;;;;;;4205606;28;20048;-76
2021/08/26 05:44:56;;;;;;;2.65;1.13;;;34.50;85.20;;;;;;4192666;28;20037;-76
2021/08/26 05:47:04;;;;;;;3.60;0.90;;;34.60;84.80;;;;;;4209033;28;20067;-76
2021/08/26 05:49:09;;;;;;;4.50;1.13;;;34.60;84.40;;;;;;4203505;28;20044;-74
2021/08/26 05:51:13;;;;;;;1.63;0.70;;;34.60;84.70;;;;;;4209316;28;20051;-76
2021/08/26 05:53:17;;;;;;;2.75;0.82;;;34.60;84.80;;;;;;4203187;28;20093;-75
2021/08/26 05:55:22;;;;;;;1.25;0.68;;;34.70;85.20;;;;;;4190551;28;20403;-76
2021/08/26 05:57:28;;;;;;;2.35;0.82;;;34.80;84.80;;;;;;4207277;28;20040;-77
2021/08/26 05:59:39;;;;;;;3.75;0.80;;;34.80;83.40;;;;;;4178094;28;20045;-77
2021/08/26 06:01:44;;;;;;;1.27;0.77;;;34.90;83.30;;;;;;4204109;28;20044;-75
2021/08/26 06:03:49;;;;;;;2.00;0.90;;;35.00;82.30;;;;;;4201400;28;20124;-75
2021/08/26 06:05:54;;;;;;;1.58;0.88;;;34.90;81.40;;;;;;4201835;28;20060;-75
2021/08/26 06:07:59;;;;;;;1.10;0.70;;;34.60;81.90;;;;;;4202419;28;20037;-74
2021/08/26 06:10:06;;;;;;;2.05;0.70;;;34.60;82.40;;;;;;4203436;28;20040;-77
2021/08/26 06:12:12;;;;;;;1.00;0.82;;;34.80;81.80;;;;;;4136169;28;20076;-77
2021/08/26 06:14:30;;;;;;;1.65;0.90;;;34.80;81.60;;;;;;4204023;28;20044;-75
2021/08/26 06:16:37;;;;;;;1.52;0.90;;;35.00;81.70;;;;;;4212401;28;20048;-79
2021/08/26 06:18:48;;;;;;;1.42;0.90;;;35.10;81.90;;;;;;4192320;28;20052;-77
2021/08/26 06:20:58;;;;;;;1.35;0.75;;;35.20;82.00;;;;;;4213095;28;20044;-77
2021/08/26 06:23:12;;;;;;;1.35;1.02;;;35.20;81.60;;;;;;4198184;28;20044;-75
2021/08/26 06:25:26;;;;;;;1.35;1.00;;;35.30;81.50;;;;;;4199384;28;20053;-76
2021/08/26 06:27:45;;;;;;;1.40;0.80;;;35.30;81.40;;;;;;4185593;28;20517;-69
2021/08/26 06:29:55;;;;;;;1.67;0.95;;;35.40;81.80;;;;;;4182685;28;20494;-70
2021/08/26 06:32:04;;;;;;;1.58;0.80;;;35.40;81.80;;;;;;4183595;28;20132;-70
2021/08/26 06:34:14;;;;;;;1.48;0.82;;;35.30;82.20;;;;;;4200903;28;20503;-70
2021/08/26 06:36:24;;;;;;;0.93;0.80;;;35.20;82.40;;;;;;4200181;28;20094;-68
2021/08/26 06:38:28;;;;;;;2.28;0.73;;;35.30;82.40;;;;;;4200717;28;20037;-68
2021/08/26 06:40:37;;;;;;;2.17;0.63;;;35.30;82.70;;;;;;4183526;28;20057;-70
2021/08/26 06:42:43;;;;;;;0.90;0.60;;;35.30;81.90;;;;;;4184936;28;20041;-67
2021/08/26 06:44:48;;;;;;;3.95;0.90;;;35.30;80.90;;;;;;4201565;28;20098;-70
2021/08/26 06:46:55;;;;;;;1.10;0.65;;;35.40;78.30;;;;;;4200806;28;20534;-69
2021/08/26 06:49:07;;;;;;;1.80;0.57;;;35.40;78.90;;;;;;4172780;28;20134;-69
2021/08/26 06:51:12;;;;;;;1.45;0.70;;;35.50;78.80;;;;;;4185104;28;20713;-67
2021/08/26 06:53:20;;;;;;;0.98;0.82;;;35.50;78.80;;;;;;4200867;28;20052;-69
2021/08/26 06:55:31;;;;;;;1.40;0.80;;;35.50;78.50;;;;;;4185186;28;20056;-68
2021/08/26 06:57:43;;;;;;;1.92;0.70;;;35.50;78.70;;;;;;4200735;28;20144;-69
2021/08/26 06:59:59;;;;;;;1.88;0.82;;;35.50;78.70;;;;;;4199383;28;20049;-68
2021/08/26 07:02:11;;;;;;;2.33;0.80;;;35.40;76.80;;;;;;4185437;28;20582;-69
2021/08/26 07:04:21;;;;;;;2.15;0.93;;;35.40;75.80;;;;;;4187740;28;20056;-68
2021/08/26 07:06:26;;;;;;;1.30;0.70;;;35.30;76.10;;;;;;4174323;28;20071;-68
2021/08/26 07:08:31;;;;;;;1.70;0.90;;;35.30;76.30;;;;;;4184156;28;20389;-67
2021/08/26 07:10:39;;;;;;;2.03;1.00;;;35.40;76.80;;;;;;4197048;28;20047;-68
2021/08/26 07:12:44;;;;;;;1.60;0.70;;;35.30;76.30;;;;;;4214297;28;20048;-69
2021/08/26 07:14:50;;;;;;;2.72;0.70;;;35.40;76.20;;;;;;4200698;28;20127;-68
2021/08/26 07:17:02;;;;;;;1.90;0.98;;;35.40;76.30;;;;;;4203297;28;20486;-68
2021/08/26 07:19:09;;;;;;;1.67;0.70;;;35.50;75.60;;;;;;4196177;28;20044;-68
2021/08/26 07:21:14;;;;;;;1.17;0.88;;;35.50;74.90;;;;;;4177208;28;20120;-68
2021/08/26 07:23:22;;;;;;;1.30;0.80;;;35.30;74.10;;;;;;4209851;28;20417;-67
2021/08/26 07:25:29;;;;;;;3.08;0.63;;;35.40;75.40;;;;;;4182833;28;20053;-68
2021/08/26 07:27:34;;;;;;;5.25;1.33;;;35.50;75.50;;;;;;4198214;28;20052;-67
2021/08/26 07:29:45;;;;;;;11.23;1.30;;;35.70;75.80;;;;;;4198060;28;20072;-69
2021/08/26 07:31:59;;;;;;;5.22;0.82;;;35.80;74.50;;;;;;4183568;28;20128;-68
2021/08/26 07:34:18;;;;;;;3.58;0.90;;;35.90;74.00;;;;;;4184306;28;20052;-68
2021/08/26 07:36:27;;;;;;;3.50;0.90;;;35.90;74.00;;;;;;4170725;28;20059;-69
2021/08/26 07:38:31;;;;;;;5.97;1.20;;;35.80;74.00;;;;;;4175501;28;20109;-69
2021/08/26 07:40:39;;;;;;;2.33;1.17;;;35.70;74.40;;;;;;4161856;28;20555;-70
2021/08/26 07:42:52;;;;;;;2.08;0.70;;;35.80;74.30;;;;;;4199372;28;20037;-68
2021/08/26 07:45:03;;;;;;;1.80;0.77;;;35.70;74.40;;;;;;4200806;28;20104;-69
2021/08/26 07:47:14;;;;;;;2.08;0.75;;;35.80;74.30;;;;;;4139335;28;20061;-68
2021/08/26 07:49:21;;;;;;;5.10;2.30;;;35.80;74.20;;;;;;4189777;28;20458;-70
2021/08/26 07:51:38;;;;;;;3.60;1.90;;;35.70;73.90;;;;;;4208171;28;20040;-68
2021/08/26 07:53:48;;;;;;;4.03;1.52;;;35.60;74.70;;;;;;4188115;28;20044;-70
2021/08/26 07:55:57;;;;;;;2.00;1.20;;;35.70;74.90;;;;;;4184506;28;20059;-70
2021/08/26 07:58:03;;;;;;;1.15;0.70;;;35.80;74.20;;;;;;4191438;28;20044;-69
2021/08/26 08:00:14;;;;;;;1.27;0.88;;;35.80;74.10;;;;;;4164983;28;20040;-68
2021/08/26 08:02:19;;;;;;;1.00;0.73;;;35.80;73.80;;;;;;4189323;28;20037;-70
2021/08/26 08:04:24;;;;;;;1.27;0.80;;;35.80;73.80;;;;;;4205532;28;20122;-69
2021/08/26 08:06:31;;;;;;;1.83;1.10;;;35.80;74.10;;;;;;4199906;28;20123;-69
2021/08/26 08:08:36;;;;;;;3.53;1.20;;;35.80;74.40;;;;;;4186556;28;20067;-69
2021/08/26 08:10:41;;;;;;;1.67;0.95;;;35.80;74.70;;;;;;4204308;28;20053;-69
2021/08/26 08:12:50;;;;;;;1.17;0.85;;;35.70;74.20;;;;;;4183149;28;20048;-69
2021/08/26 08:14:54;;;;;;;2.38;1.20;;;35.80;74.90;;;;;;4202619;28;20040;-67
2021/08/26 08:17:00;;;;;;;1.17;0.93;;;35.80;75.00;;;;;;4188072;28;20057;-69
2021/08/26 08:19:09;;;;;;;1.20;0.82;;;35.80;75.10;;;;;;4182934;28;20103;-68
2021/08/26 08:21:16;;;;;;;1.65;1.00;;;35.80;74.60;;;;;;4184697;28;20052;-68
2021/08/26 08:23:23;;;;;;;2.72;0.77;;;35.80;74.40;;;;;;4190667;28;20041;-68
2021/08/26 08:25:34;;;;;;;1.13;0.77;;;35.80;74.00;;;;;;4203424;28;20127;-68
2021/08/26 08:27:40;;;;;;;2.05;1.00;;;35.80;74.30;;;;;;4204631;28;20079;-67
2021/08/26 08:29:44;;;;;;;1.27;0.95;;;35.80;74.30;;;;;;4205390;28;20045;-68
2021/08/26 08:31:49;;;;;;;2.47;0.80;;;35.70;73.20;;;;;;4158560;28;20054;-67
2021/08/26 08:33:55;;;;;;;1.45;0.75;;;35.60;73.50;;;;;;4201213;28;20052;-70
2021/08/26 08:36:03;;;;;;;2.97;1.00;;;35.50;73.60;;;;;;4204156;28;20149;-70
2021/08/26 08:38:12;;;;;;;0.98;0.80;;;35.50;73.50;;;;;;4202303;28;20037;-68
2021/08/26 08:40:25;;;;;;;3.25;1.00;;;35.40;73.80;;;;;;4199750;28;20045;-68
2021/08/26 08:42:32;;;;;;;0.77;0.68;;;35.30;74.50;;;;;;4197542;28;20041;-68
2021/08/26 08:44:37;;;;;;;1.70;0.93;;;35.40;74.80;;;;;;4201068;28;20353;-68
2021/08/26 08:46:43;;;;;;;2.80;0.88;;;35.40;75.00;;;;;;4167734;28;20045;-68
2021/08/26 08:48:50;;;;;;;1.45;0.80;;;35.50;75.10;;;;;;4188928;28;20048;-67
2021/08/26 08:50:57;;;;;;;1.83;1.00;;;35.50;75.00;;;;;;4179678;28;20094;-68
2021/08/26 08:53:02;;;;;;;2.53;0.90;;;35.40;74.90;;;;;;4206208;28;20047;-65
2021/08/26 08:55:09;;;;;;;1.50;0.70;;;35.20;75.30;;;;;;4186153;28;20040;-69
2021/08/26 08:57:14;;;;;;;2.00;1.10;;;35.30;75.30;;;;;;4189594;28;20041;-69
2021/08/26 08:59:19;;;;;;;1.88;1.10;;;35.30;75.20;;;;;;4185501;28;20036;-69
2021/08/26 09:01:27;;;;;;;3.10;1.17;;;35.40;75.30;;;;;;4182578;28;20045;-67
2021/08/26 09:03:38;;;;;;;0.90;0.75;;;35.30;74.90;;;;;;4204713;28;20055;-68
2021/08/26 09:05:56;;;;;;;1.75;1.00;;;35.40;74.90;;;;;;4204417;28;20044;-67
2021/08/26 09:08:12;;;;;;;2.80;1.02;;;35.40;74.90;;;;;;4200432;28;20053;-67
2021/08/26 09:10:23;;;;;;;1.40;0.90;;;35.50;74.70;;;;;;4200890;28;20076;-66
2021/08/26 09:12:48;;;;;;;1.75;1.10;;;35.50;74.40;;;;;;4185532;28;20119;-69
2021/08/26 09:15:30;;;;;;;1.60;0.80;;;35.60;74.40;;;;;;4151372;28;20050;-66
2021/08/26 09:17:34;;;;;;;3.25;0.95;;;35.60;74.50;;;;;;4138763;28;20069;-67
2021/08/26 09:19:43;;;;;;;1.70;0.95;;;35.60;74.40;;;;;;4137011;28;20046;-68
2021/08/26 09:21:48;;;;;;;1.17;0.63;;;35.60;74.30;;;;;;4143714;28;20089;-71
2021/08/26 09:24:00;;;;;;;0.88;0.60;;;35.60;74.40;;;;;;4130199;28;20452;-70
2021/08/26 09:26:17;;;;;;;1.52;0.90;;;35.70;74.20;;;;;;4147282;28;20449;-68
2021/08/26 09:28:33;;;;;;;2.00;1.08;;;35.60;74.40;;;;;;4130291;28;20050;-69
2021/08/26 09:30:41;;;;;;;2.03;1.10;;;35.50;74.60;;;;;;4111821;28;20081;-68
2021/08/26 09:32:49;;;;;;;2.92;1.20;;;35.30;74.70;;;;;;4130542;28;20117;-67
2021/08/26 09:34:54;;;;;;;3.42;1.17;;;35.20;74.80;;;;;;4146479;28;20042;-67
2021/08/26 09:36:59;;;;;;;7.85;3.55;;;35.10;75.20;;;;;;4142910;28;20041;-69
2021/08/26 09:39:11;;;;;;;12.60;8.10;;;35.10;75.10;;;;;;4151829;28;20042;-70
2021/08/26 09:41:43;;;;;;;10.88;6.93;;;35.00;75.50;;;;;;4151698;28;20057;-69
2021/08/26 09:44:03;;;;;;;7.43;4.60;;;34.90;75.60;;;;;;4136679;28;20050;-70
2021/08/26 09:46:08;;;;;;;7.55;4.63;;;34.80;76.20;;;;;;4173859;28;20044;-67
2021/08/26 09:48:14;;;;;;;5.68;3.90;;;34.80;76.40;;;;;;4205576;28;20055;-68
2021/08/26 09:50:45;;;;;;;4.60;3.13;;;34.80;76.60;;;;;;4205189;28;20102;-69
2021/08/26 09:53:02;;;;;;;4.15;2.53;;;34.80;76.60;;;;;;4180476;28;20049;-70
2021/08/26 09:55:28;;;;;;;3.40;2.17;;;34.90;76.30;;;;;;4197399;28;20051;-70
2021/08/26 09:57:39;;;;;;;2.45;1.70;;;34.90;76.10;;;;;;4167049;28;20045;-71
2021/08/26 09:59:52;;;;;;;1.88;1.23;;;34.90;75.80;;;;;;4198420;28;20425;-70
2021/08/26 10:02:08;;;;;;;1.77;1.10;;;34.90;75.90;;;;;;4184661;28;20442;-71
2021/08/26 10:04:27;;;;;;;2.45;0.82;;;35.00;76.00;;;;;;4184503;28;20048;-71
2021/08/26 10:06:35;;;;;;;2.40;0.88;;;35.00;75.80;;;;;;4201503;28;20106;-71
2021/08/26 10:08:52;;;;;;;2.83;0.90;;;35.00;75.50;;;;;;4182084;28;20041;-71
2021/08/26 10:11:11;;;;;;;2.80;1.02;;;35.00;75.80;;;;;;4199819;28;20035;-71
2021/08/26 10:13:27;;;;;;;2.85;1.10;;;35.00;75.90;;;;;;4194938;28;20125;-71
2021/08/26 10:15:35;;;;;;;2.05;1.00;;;34.90;76.00;;;;;;4199017;28;20048;-70
2021/08/26 10:17:43;;;;;;;3.40;0.90;;;34.90;76.50;;;;;;4185721;28;20041;-70
2021/08/26 10:19:50;;;;;;;3.15;1.02;;;34.90;77.00;;;;;;4182085;28;20482;-72
2021/08/26 10:21:58;;;;;;;1.05;0.90;;;34.90;76.90;;;;;;4201575;28;20048;-67
2021/08/26 10:24:03;;;;;;;1.35;0.93;;;34.80;76.60;;;;;;4205081;28;20043;-68
2021/08/26 10:26:08;;;;;;;2.58;1.02;;;34.70;76.90;;;;;;4201050;28;20052;-68
2021/08/26 10:28:12;;;;;;;1.77;1.10;;;34.70;76.70;;;;;;4189266;28;20555;-69
2021/08/26 10:30:29;;;;;;;1.77;1.15;;;34.70;76.90;;;;;;4190323;28;20052;-67
2021/08/26 10:32:33;;;;;;;3.42;1.50;;;34.50;77.20;;;;;;4186256;28;20123;-67
2021/08/26 10:34:39;;;;;;;3.78;1.83;;;34.50;77.60;;;;;;4202053;28;20052;-69
2021/08/26 10:36:56;;;;;;;2.30;1.55;;;34.50;78.70;;;;;;4202824;28;20044;-69
2021/08/26 10:39:27;;;;;;;2.90;2.03;;;34.50;78.90;;;;;;4207583;28;20064;-68
2021/08/26 10:41:32;;;;;;;6.13;2.30;;;34.50;79.40;;;;;;4205508;28;20491;-67
2021/08/26 10:43:56;;;;;;;6.10;2.13;;;34.40;79.80;;;;;;4204179;28;20428;-66
2021/08/26 10:46:05;;;;;;;2.80;2.25;;;34.40;80.40;;;;;;4204885;28;20106;-68
2021/08/26 10:48:15;;;;;;;5.88;2.40;;;34.30;80.40;;;;;;4200476;28;20055;-68
2021/08/26 10:50:25;;;;;;;3.83;2.20;;;34.30;80.40;;;;;;4205265;28;20136;-68
2021/08/26 10:52:55;;;;;;;5.07;2.25;;;34.20;80.50;;;;;;4205080;28;20395;-67
2021/08/26 10:55:00;;;;;;;6.53;2.70;;;34.20;80.90;;;;;;4197386;28;20071;-68
2021/08/26 10:57:29;;;;;;;5.22;2.40;;;34.10;81.40;;;;;;4197434;28;20048;-66
2021/08/26 10:59:34;;;;;;;3.28;2.05;;;34.10;81.80;;;;;;4199218;28;20418;-67
2021/08/26 11:01:42;;;;;;;4.28;2.50;;;34.00;81.20;;;;;;4198003;28;20048;-67
2021/08/26 11:03:51;;;;;;;4.40;2.60;;;33.90;81.50;;;;;;4197058;28;20040;-68
2021/08/26 11:05:55;;;;;;;7.40;2.83;;;33.90;81.80;;;;;;4195728;28;20143;-68
2021/08/26 11:08:21;;;;;;;5.70;3.17;;;33.80;81.70;;;;;;4194876;28;20053;-67
2021/08/26 11:10:29;;;;;;;7.63;3.55;;;33.80;81.90;;;;;;4197215;28;20407;-69
2021/08/26 11:12:34;;;;;;;5.25;3.03;;;33.80;81.70;;;;;;4195737;28;20533;-68
2021/08/26 11:14:41;;;;;;;4.28;2.55;;;33.80;81.60;;;;;;4195425;28;20098;-71
2021/08/26 11:16:47;;;;;;;6.05;2.88;;;33.70;81.50;;;;;;4180514;28;20048;-67
2021/08/26 11:19:18;;;;;;;5.68;1.98;;;33.70;81.70;;;;;;4196325;28;20553;-68
2021/08/26 11:22:00;;;;;;;4.90;1.95;;;33.70;81.90;;;;;;4195692;28;20066;-69
2021/08/26 11:24:05;;;;;;;4.13;2.38;;;33.60;82.20;;;;;;4197040;28;20076;-70
2021/08/26 11:26:34;;;;;;;2.50;1.60;;;33.50;82.90;;;;;;4195383;28;20423;-68